Corran Ban, Prince Edward Island

6:02 PM ADT on July 24, 2017 (GMT -0300)
Winter Bay Observatory | | Change Station

Elev 26 ft 46.37 °N, 63.03 °W | Updated 5 minutes ago

Overcast
Overcast
66.3 °F
Feels Like 66.3 °F
N
0.0
Wind Variable Wind from West
Gusts 3.0 mph

Today
High -- | Low -- °F
--% Chance of Precip.
Yesterday
High -- | Low -- °F
Precip. -- in
Pressure 30.10 in
Visibility 15.0 miles
Clouds Few 4000 ft
Overcast 22000 ft
Dew Point 54 °F
Humidity 64%
Rainfall 0.00 in
Snow Depth Not available.
5:44 AM 8:52 PM
Waxing Crescent, 3% visible
METAR CYYG 242100Z 05007KT 15SM FEW040 OVC220 18/11 A3009 RMK SC1CS8 SC TR SLP192 DENSITY ALT 400FT
Pressure 30.10 in
Visibility 15.0 miles
Clouds Few 4000 ft
Overcast 22000 ft
Dew Point 54 °F
Humidity 64%
Rainfall 0.00 in
Snow Depth Not available.
5:44 AM 8:52 PM
Waxing Crescent, 3% visible
METAR CYYG 242100Z 05007KT 15SM FEW040 OVC220 18/11 A3009 RMK SC1CS8 SC TR SLP192 DENSITY ALT 400FT

Get Severe Weather Alerts

Thanks for signing up!

Be on the lookout for a verification email in your inbox.

You'll start receiving the daily forecast at 6 AM.

×

10-Day Weather Forecast

Almanac

Astronomy

Jul. 24, 2017 Rise Set
Actual Time
Civil Twilight
Nautical Twilight
Astronomical Twilight
Moon
Length of Visible Light
Length of Day
Tomorrow will be .
, % of the Moon is Illuminated

Today's Extremes

Country Highs Country Lows

Community

WunderPhotos

Category 6

Welcome to Category 6. This is the collective home for Weather Underground's featured writeups by Dr. Jeff Masters (right), Bob Henson (left), Chris Burt, and other regular contributors.

Nearby

Air Quality

  Air Quality AQ Index Pollutant
Not available.

Snow Depth

Station Depth Elevation

Earthquake Activity

City Distance Mag. Time & Date
Minimum magnitude displayed is 2.5.

Coastal Water Temperatures

Place Temperature

Stations

Nearby Weather Stations

Station Location Temp. Windchill Dew Point Humidity Wind Precip. Elev Updated Type
                   

Watches & Warnings

There are currently no watches in effect.